Time;durP1;ratioP1;P1;durP2;ratioP2;P2;SDS_P1;SDS_P2;PMS_P1;PMS_P2;Temp;Humidity;BMP_temperature;BMP_pressure;BME280_temperature;BME280_humidity;BME280_pressure;Samples;Min_cycle;Max_cycle;Signal;HPM_P1;HPM_P2
2021/11/15 00:00:45;;;;;;;28.88;20.20;;;6.80;80.80;;;4.93;92.08;96471.66;4973072;28;20101;-69
2021/11/15 00:03:14;;;;;;;27.42;18.70;;;6.80;81.00;;;4.91;92.19;96475.38;4968848;28;20187;-69
2021/11/15 00:05:40;;;;;;;27.60;17.88;;;6.70;81.00;;;4.90;91.90;96468.53;4988105;28;20027;-70
2021/11/15 00:08:06;;;;;;;27.85;19.77;;;6.70;80.90;;;4.90;91.83;96466.75;4968743;28;20506;-68
2021/11/15 00:10:32;;;;;;;28.92;17.92;;;6.70;81.30;;;4.89;92.56;96472.94;4986877;28;20502;-69
2021/11/15 00:12:57;;;;;;;28.52;19.50;;;6.80;81.40;;;4.90;92.90;96471.97;4983901;28;20484;-69
2021/11/15 00:15:23;;;;;;;29.90;18.27;;;6.80;81.20;;;4.90;91.98;96464.16;4955977;28;20149;-69
2021/11/15 00:17:49;;;;;;;27.58;20.00;;;6.80;81.20;;;4.90;91.84;96465.94;4973059;28;20115;-68
2021/11/15 00:20:15;;;;;;;27.60;18.05;;;6.80;81.30;;;4.89;93.02;96459.91;4987004;28;20113;-68
2021/11/15 00:22:41;;;;;;;30.15;20.40;;;6.80;81.40;;;4.87;92.45;96447.97;4985638;28;20152;-69
2021/11/15 00:25:07;;;;;;;30.15;18.92;;;6.70;81.50;;;4.86;92.22;96457.59;4991600;28;20496;-69
2021/11/15 00:27:33;;;;;;;29.73;19.92;;;6.70;81.50;;;4.84;92.78;96451.69;4994401;28;20415;-69
2021/11/15 00:30:00;;;;;;;30.77;19.73;;;6.70;81.50;;;4.83;92.87;96452.66;4972852;28;20113;-68
2021/11/15 00:32:27;;;;;;;29.67;20.02;;;6.70;81.70;;;4.86;92.51;96457.59;4990185;28;20031;-67
2021/11/15 00:34:53;;;;;;;30.60;19.17;;;6.70;81.70;;;4.85;92.69;96458.56;4968610;28;20058;-67
2021/11/15 00:37:18;;;;;;;30.42;19.90;;;6.70;81.60;;;4.87;93.48;96458.41;4987023;28;20043;-68
2021/11/15 00:39:44;;;;;;;29.33;18.77;;;6.80;81.70;;;4.87;93.01;96464.44;4955352;28;20066;-69
2021/11/15 00:42:10;;;;;;;29.67;21.08;;;6.80;81.90;;;4.87;93.92;96461.00;4970877;28;20038;-68
2021/11/15 00:44:36;;;;;;;32.00;19.05;;;6.80;81.90;;;4.87;93.74;96458.41;4959737;28;20608;-68
2021/11/15 00:47:02;;;;;;;30.58;20.05;;;6.70;81.90;;;4.87;93.81;96463.63;4990279;28;20506;-68
2021/11/15 00:49:28;;;;;;;29.63;17.95;;;6.80;81.70;;;4.86;92.55;96457.59;4974212;28;20329;-69
2021/11/15 00:51:53;;;;;;;31.30;20.65;;;6.70;81.70;;;4.84;93.69;96464.72;4957526;28;20037;-69
2021/11/15 00:54:19;;;;;;;31.25;18.20;;;6.70;81.70;;;4.84;93.25;96469.94;4973733;28;20094;-69
2021/11/15 00:56:45;;;;;;;30.48;21.13;;;6.70;81.80;;;4.81;93.60;96470.22;4977818;28;20034;-70
2021/11/15 00:59:11;;;;;;;30.80;20.92;;;6.70;82.10;;;4.82;93.95;96469.28;5008678;28;20050;-69
2021/11/15 01:01:36;;;;;;;31.70;20.17;;;6.70;82.10;;;4.84;93.10;96472.53;4997030;28;20066;-69
2021/11/15 01:04:02;;;;;;;32.17;21.27;;;6.70;82.00;;;4.85;93.73;96471.59;4980510;28;20058;-69
2021/11/15 01:06:28;;;;;;;33.55;20.40;;;6.70;82.00;;;4.86;92.95;96475.00;5005226;28;20057;-69
2021/11/15 01:08:54;;;;;;;30.92;21.45;;;6.70;81.90;;;4.86;93.67;96472.41;4974508;28;20062;-69
2021/11/15 01:11:19;;;;;;;30.95;20.15;;;6.80;82.00;;;4.87;94.22;96476.66;4984390;28;20043;-69
2021/11/15 01:13:45;;;;;;;32.15;21.23;;;6.80;82.00;;;4.87;93.15;96482.69;4973315;28;20187;-69
2021/11/15 01:16:11;;;;;;;31.50;19.98;;;6.80;82.00;;;4.88;94.09;96476.50;4978687;28;20062;-69
2021/11/15 01:18:41;;;;;;;30.45;21.15;;;6.80;82.00;;;4.87;93.70;96480.06;4969861;28;20097;-69
2021/11/15 01:21:08;;;;;;;33.90;19.70;;;6.80;81.90;;;4.85;93.43;96476.78;4954261;28;20027;-69
2021/11/15 01:23:33;;;;;;;30.15;19.20;;;6.80;82.20;;;4.84;93.99;96480.38;4969884;28;20110;-69
2021/11/15 01:25:59;;;;;;;32.35;20.65;;;6.80;82.30;;;4.85;93.63;96481.19;4971357;28;20046;-69
2021/11/15 01:28:25;;;;;;;32.03;18.70;;;6.80;82.20;;;4.82;93.83;96477.09;4955293;28;20042;-69
2021/11/15 01:30:50;;;;;;;31.70;20.90;;;6.80;82.20;;;4.82;94.38;96482.31;4985344;28;20062;-69
2021/11/15 01:33:16;;;;;;;33.33;18.33;;;6.70;82.30;;;4.81;94.42;96475.44;4970522;28;20066;-68
2021/11/15 01:35:42;;;;;;;31.58;18.92;;;6.70;82.40;;;4.76;94.60;96471.63;4966200;28;20037;-69
2021/11/15 01:38:08;;;;;;;30.45;20.17;;;6.60;82.70;;;4.74;95.10;96474.34;4978964;28;20458;-69
2021/11/15 01:40:33;;;;;;;36.08;20.20;;;6.60;82.80;;;4.75;95.25;96469.97;4981108;28;20603;-69
2021/11/15 01:43:01;;;;;;;31.08;20.70;;;6.60;82.90;;;4.73;94.69;96467.50;4982350;28;20027;-69
2021/11/15 01:45:31;;;;;;;33.65;19.38;;;6.60;82.70;;;4.73;94.46;96461.47;4985064;28;20677;-69
2021/11/15 01:47:59;;;;;;;31.87;21.13;;;6.60;82.70;;;4.75;94.54;96475.19;4982062;28;20065;-69
2021/11/15 01:50:25;;;;;;;32.20;20.73;;;6.70;82.70;;;4.73;94.42;96474.50;4946791;28;1025793;-69
2021/11/15 01:52:51;;;;;;;34.65;20.27;;;6.60;82.50;;;4.74;94.33;96476.16;4986006;28;20042;-69
2021/11/15 01:55:18;;;;;;;33.65;21.25;;;6.60;82.50;;;4.71;94.17;96474.66;4969094;28;20034;-69
2021/11/15 01:57:43;;;;;;;32.33;19.98;;;6.60;82.70;;;4.71;94.53;96476.44;4985878;28;20038;-69
2021/11/15 02:00:14;;;;;;;38.15;21.30;;;6.60;82.80;;;4.68;94.94;96469.72;4985564;28;20061;-69
2021/11/15 02:02:40;;;;;;;36.20;23.20;;;6.60;82.80;;;4.68;94.94;96467.13;4982203;28;20031;-69
2021/11/15 02:05:06;;;;;;;37.88;21.65;;;6.60;82.90;;;4.68;95.06;96468.91;4969912;28;20097;-69
2021/11/15 02:07:32;;;;;;;35.75;23.25;;;6.60;82.80;;;4.68;94.43;96468.91;4985268;28;20074;-69
2021/11/15 02:09:58;;;;;;;33.30;20.75;;;6.60;82.80;;;4.68;95.07;96464.53;4982229;28;20094;-69
2021/11/15 02:12:25;;;;;;;37.22;22.10;;;6.60;82.90;;;4.67;94.44;96465.47;4989053;28;20038;-69
2021/11/15 02:14:52;;;;;;;35.88;21.92;;;6.60;82.90;;;4.66;94.68;96461.22;4986141;28;20413;-69
2021/11/15 02:17:17;;;;;;;36.88;21.17;;;6.60;83.00;;;4.65;95.57;96459.59;4985504;28;20087;-68
2021/11/15 02:19:43;;;;;;;34.00;22.98;;;6.60;83.10;;;4.66;95.09;96461.22;4968928;28;20049;-69
2021/11/15 02:22:09;;;;;;;34.85;19.52;;;6.60;83.30;;;4.66;95.31;96461.22;4984651;28;20499;-68
2021/11/15 02:24:35;;;;;;;34.10;20.27;;;6.60;83.30;;;4.61;95.86;96450.44;4940322;28;20050;-68
2021/11/15 02:27:03;;;;;;;33.30;21.88;;;6.50;83.50;;;4.61;95.69;96453.03;4959828;28;20100;-68
2021/11/15 02:29:28;;;;;;;34.97;21.35;;;6.50;83.30;;;4.61;95.40;96453.03;4980075;28;20109;-68
2021/11/15 02:31:54;;;;;;;35.25;20.50;;;6.50;83.30;;;4.57;95.39;96449.91;4973342;28;20057;-68
2021/11/15 02:34:20;;;;;;;33.70;21.05;;;6.50;83.40;;;4.54;95.65;96451.97;4986383;28;20034;-68
2021/11/15 02:36:45;;;;;;;33.20;20.95;;;6.40;83.40;;;4.57;95.94;96443.88;4989629;28;20030;-68
2021/11/15 02:39:11;;;;;;;35.40;21.00;;;6.50;83.40;;;4.55;95.96;96440.59;4969096;28;20105;-69
2021/11/15 02:41:37;;;;;;;33.97;19.85;;;6.50;83.40;;;4.55;95.97;96443.19;4989613;28;20027;-69
2021/11/15 02:44:07;;;;;;;35.45;20.42;;;6.50;83.40;;;4.54;96.00;96446.75;4994848;28;20117;-67
2021/11/15 02:46:34;;;;;;;35.78;22.35;;;6.40;83.50;;;4.52;95.96;96438.25;4972296;28;20506;-68
2021/11/15 02:49:02;;;;;;;38.13;21.45;;;6.50;83.70;;;4.54;95.38;96429.34;4972276;28;20047;-68
2021/11/15 02:51:28;;;;;;;35.90;21.38;;;6.40;83.50;;;4.51;95.64;96432.22;4969341;28;20404;-68
2021/11/15 02:53:54;;;;;;;36.45;21.17;;;6.40;83.60;;;4.52;95.55;96433.03;4961832;28;20442;-68
2021/11/15 02:56:19;;;;;;;36.35;20.92;;;6.40;83.60;;;4.52;96.21;96435.63;4968845;28;20101;-68
2021/11/15 02:58:45;;;;;;;31.10;20.42;;;6.40;83.60;;;4.51;96.37;96431.41;4972120;28;20070;-68
2021/11/15 03:01:14;;;;;;;36.38;20.95;;;6.40;83.60;;;4.53;96.17;96432.09;4988829;28;20046;-68
2021/11/15 03:03:40;;;;;;;34.42;20.70;;;6.50;83.60;;;4.50;96.57;96424.53;4972483;28;20042;-68
2021/11/15 03:06:06;;;;;;;36.63;21.73;;;6.40;83.70;;;4.47;96.68;96430.88;4954354;28;20491;-68
2021/11/15 03:08:32;;;;;;;36.83;20.73;;;6.30;83.90;;;4.47;95.76;96432.66;4971850;28;20058;-68
2021/11/15 03:11:00;;;;;;;34.97;20.65;;;6.40;83.80;;;4.45;96.32;96422.38;4973109;28;20503;-68
2021/11/15 03:13:28;;;;;;;35.55;21.42;;;6.40;83.80;;;4.48;96.64;96429.06;4988277;28;20113;-68
2021/11/15 03:15:54;;;;;;;37.47;20.80;;;6.40;83.80;;;4.50;96.10;96427.97;5006166;28;20045;-68
2021/11/15 03:18:30;;;;;;;40.08;22.77;;;6.50;83.70;;;4.49;96.62;96428.13;4991023;28;20061;-67
2021/11/15 03:21:20;;;;;;;40.92;23.13;;;6.40;83.80;;;4.52;97.37;96425.22;5006608;28;20053;-68
2021/11/15 03:23:52;;;;;;;44.08;23.17;;;6.50;83.80;;;4.51;97.29;96434.81;4990759;28;20058;-68
2021/11/15 03:26:18;;;;;;;38.40;23.08;;;6.50;83.80;;;4.52;97.22;96444.28;5007088;28;20666;-68
2021/11/15 03:28:46;;;;;;;42.35;23.55;;;6.50;83.80;;;4.51;97.13;96431.41;4981786;28;20057;-69
2021/11/15 03:31:27;;;;;;;39.10;22.42;;;6.50;83.90;;;4.52;97.33;96431.25;4987932;28;20199;-68
2021/11/15 03:33:58;;;;;;;41.35;22.40;;;6.50;83.70;;;4.53;97.11;96435.53;4988085;28;20553;-68
2021/11/15 03:36:24;;;;;;;39.92;22.90;;;6.50;83.80;;;4.53;97.11;96432.09;4949590;28;20081;-68
2021/11/15 03:38:51;;;;;;;41.45;22.88;;;6.50;83.80;;;4.53;97.30;96425.09;4970456;28;20035;-68
2021/11/15 03:41:17;;;;;;;43.13;23.00;;;6.50;83.90;;;4.53;97.27;96435.53;4996192;28;20042;-68
2021/11/15 03:43:43;;;;;;;40.22;22.02;;;6.50;83.90;;;4.54;97.28;96431.13;4967915;28;20058;-68
2021/11/15 03:46:09;;;;;;;41.15;24.83;;;6.60;83.80;;;4.55;96.92;96428.38;5003562;28;20035;-68
2021/11/15 03:48:34;;;;;;;41.50;22.80;;;6.50;83.80;;;4.54;97.51;96425.94;4971251;28;20510;-68
2021/11/15 03:51:00;;;;;;;41.63;24.58;;;6.60;83.90;;;4.55;96.74;96423.19;4970806;28;20041;-68
2021/11/15 03:53:39;;;;;;;39.78;23.55;;;6.50;84.00;;;4.53;97.13;96424.28;4986839;28;20129;-68
2021/11/15 03:56:10;;;;;;;40.75;22.40;;;6.40;84.10;;;4.50;97.15;96429.75;4959321;28;20510;-68
2021/11/15 03:58:36;;;;;;;41.75;22.92;;;6.40;84.10;;;4.50;97.15;96435.78;4998021;28;20034;-68
2021/11/15 04:01:02;;;;;;;41.92;22.90;;;6.40;84.20;;;4.51;96.88;96431.41;4992520;28;20038;-68
2021/11/15 04:03:33;;;;;;;40.65;24.60;;;6.40;84.20;;;4.51;96.82;96436.59;4970950;28;20039;-68
2021/11/15 04:06:21;;;;;;;42.88;24.10;;;6.40;84.10;;;4.50;97.42;96437.56;4971885;28;20042;-68
2021/11/15 04:08:46;;;;;;;38.40;22.20;;;6.40;84.30;;;4.49;97.11;96425.50;4967950;28;20400;-68
2021/11/15 04:11:12;;;;;;;39.88;22.67;;;6.40;84.20;;;4.49;96.88;96425.50;4986772;28;20058;-68
2021/11/15 04:13:40;;;;;;;40.42;22.92;;;6.40;84.00;;;4.49;97.39;96433.31;4976541;28;20034;-68
2021/11/15 04:16:12;;;;;;;42.95;22.83;;;6.40;83.90;;;4.46;96.81;96429.22;4987584;28;20038;-68
2021/11/15 04:18:40;;;;;;;;;;;6.40;84.00;;;4.43;97.38;96434.72;4971066;28;20066;-68
2021/11/15 04:21:07;;;;;;;38.70;22.20;;;6.30;84.40;;;4.42;97.66;96432.25;4972173;28;20567;-68
2021/11/15 04:23:33;;;;;;;45.88;24.33;;;6.30;84.40;;;4.42;97.00;96427.06;4971295;28;20039;-68
2021/11/15 04:25:59;;;;;;;48.65;26.98;;;6.40;84.30;;;4.44;97.68;96422.53;4962451;28;20031;-68
2021/11/15 04:28:25;;;;;;;47.05;26.75;;;6.50;84.60;;;4.45;97.22;96416.34;4954416;28;20521;-68
2021/11/15 04:30:50;;;;;;;42.60;23.58;;;6.40;84.40;;;4.46;97.54;96418.00;4975516;28;20049;-66
2021/11/15 04:33:16;;;;;;;41.42;23.10;;;6.50;84.20;;;4.47;97.39;96424.84;4984218;28;20031;-69
2021/11/15 04:35:42;;;;;;;43.95;24.15;;;6.40;84.20;;;4.45;97.91;96416.34;4988011;28;20558;-69
2021/11/15 04:38:08;;;;;;;45.10;25.23;;;6.40;84.30;;;4.46;97.30;96418.00;4968686;28;20035;-67
2021/11/15 04:40:34;;;;;;;46.08;27.00;;;6.40;84.30;;;4.45;97.40;96416.34;4975717;28;20038;-69
2021/11/15 04:43:00;;;;;;;46.33;24.90;;;6.40;84.40;;;4.44;97.38;96409.50;4970559;28;20039;-68
2021/11/15 04:45:26;;;;;;;44.25;26.10;;;6.40;84.30;;;4.42;97.39;96408.81;4954206;28;20090;-67
2021/11/15 04:47:51;;;;;;;42.28;23.05;;;6.30;84.50;;;4.43;98.27;96407.84;4983330;28;20099;-70
2021/11/15 04:50:17;;;;;;;45.05;24.48;;;6.40;84.30;;;4.42;97.32;96408.81;4979703;28;20059;-68
2021/11/15 04:52:43;;;;;;;45.08;26.10;;;6.40;84.40;;;4.42;98.17;96414.84;4969995;28;20449;-69
2021/11/15 04:55:11;;;;;;;50.92;25.23;;;6.40;84.40;;;4.45;97.71;96411.97;4969939;28;20027;-69
2021/11/15 04:57:37;;;;;;;45.05;23.95;;;6.40;84.40;;;4.47;98.16;96409.22;4986352;28;20030;-69
2021/11/15 05:00:19;;;;;;;46.80;24.08;;;6.50;84.30;;;4.45;98.70;96416.34;4970152;28;20046;-69
2021/11/15 05:02:46;;;;;;;48.72;28.42;;;6.40;84.20;;;4.46;98.51;96420.59;4971389;28;20560;-69
2021/11/15 05:05:12;;;;;;;54.55;32.08;;;6.40;84.20;;;4.44;97.91;96414.72;4986582;28;20506;-69
2021/11/15 05:07:38;;;;;;;46.45;26.02;;;6.40;84.10;;;4.43;97.56;96413.06;4954125;28;20050;-70
2021/11/15 05:10:04;;;;;;;46.65;25.23;;;6.40;84.10;;;4.42;97.94;96416.63;4986164;28;20445;-70
2021/11/15 05:12:35;;;;;;;46.53;26.05;;;6.30;84.30;;;4.34;98.40;96413.94;4977256;28;20034;-69
2021/11/15 05:15:03;;;;;;;45.80;26.05;;;6.30;84.50;;;4.37;97.99;96422.28;4989050;28;20027;-70
2021/11/15 05:17:28;;;;;;;47.08;25.00;;;6.30;84.50;;;4.36;98.49;96427.63;4971202;28;20386;-70
2021/11/15 05:19:55;;;;;;;46.60;28.42;;;6.20;84.50;;;4.35;98.46;96415.56;4972639;28;20044;-69
2021/11/15 05:22:21;;;;;;;50.47;26.75;;;6.30;84.50;;;4.29;98.10;96417.75;4972019;28;20578;-69
2021/11/15 05:24:46;;;;;;;50.47;28.55;;;6.20;84.70;;;4.32;98.24;96421.91;4995037;28;20056;-69
2021/11/15 05:27:12;;;;;;;54.95;31.00;;;6.30;84.70;;;4.33;98.80;96414.91;4990755;28;20065;-69
2021/11/15 05:29:38;;;;;;;52.55;31.17;;;6.20;84.60;;;4.31;98.38;96415.03;4970380;28;20053;-70
2021/11/15 05:32:04;;;;;;;50.63;26.90;;;6.20;84.80;;;4.32;97.87;96421.91;4971301;28;20117;-70
2021/11/15 05:34:30;;;;;;;44.25;25.92;;;6.20;84.80;;;4.30;98.82;96416.00;4993401;28;20035;-69
2021/11/15 05:36:56;;;;;;;45.17;26.08;;;6.20;84.80;;;4.29;98.43;96417.75;5002300;28;20031;-69
2021/11/15 05:39:22;;;;;;;47.20;26.83;;;6.20;84.80;;;4.25;99.28;96419.00;4975426;28;20100;-69
2021/11/15 05:41:47;;;;;;;58.42;30.92;;;6.20;85.00;;;4.27;98.58;96424.06;4987719;28;20042;-69
2021/11/15 05:44:13;;;;;;;49.50;27.83;;;6.20;85.00;;;4.26;98.60;96419.84;4972232;28;20514;-69
2021/11/15 05:46:39;;;;;;;45.80;27.60;;;6.20;85.10;;;4.25;98.91;96423.41;4985136;28;20019;-70
2021/11/15 05:49:05;;;;;;;50.20;29.25;;;6.20;85.20;;;4.23;98.95;96428.75;4988663;28;20070;-70
2021/11/15 05:51:31;;;;;;;49.35;26.50;;;6.20;85.30;;;4.24;98.46;96433.00;4973573;28;20039;-70
2021/11/15 05:53:57;;;;;;;44.70;26.00;;;6.10;85.20;;;4.22;98.97;96432.31;4972628;28;20422;-70
2021/11/15 05:56:23;;;;;;;43.85;27.58;;;6.20;85.10;;;4.22;99.06;96440.13;4990347;28;20030;-68
2021/11/15 05:58:49;;;;;;;49.97;26.83;;;6.10;85.10;;;4.24;99.61;96443.41;5006492;28;20042;-67
2021/11/15 06:01:15;;;;;;;48.55;26.05;;;6.20;85.20;;;4.22;99.04;96450.53;4990881;28;20077;-68
2021/11/15 06:03:40;;;;;;;44.95;26.23;;;6.20;85.20;;;4.23;99.53;96443.56;5005337;28;20042;-68
2021/11/15 06:06:06;;;;;;;50.88;27.13;;;6.10;85.20;;;4.22;98.87;96444.53;4986819;28;20074;-70
2021/11/15 06:08:32;;;;;;;48.08;28.17;;;6.10;85.20;;;4.21;98.85;96441.09;5001755;28;20061;-68
2021/11/15 06:10:58;;;;;;;50.33;28.67;;;6.20;85.40;;;4.27;99.81;96435.31;4966971;28;20120;-69
2021/11/15 06:13:23;;;;;;;47.65;26.35;;;6.20;86.10;;;4.34;99.08;96439.97;4960140;28;20074;-65
2021/11/15 06:15:49;;;;;;;47.08;26.05;;;6.20;85.20;;;4.30;99.39;96440.28;4970388;28;20514;-65
2021/11/15 06:18:15;;;;;;;46.30;25.50;;;6.20;85.20;;;4.32;99.56;96440.13;4969862;28;20070;-66
2021/11/15 06:20:42;;;;;;;49.55;27.85;;;6.30;84.80;;;4.34;99.39;96439.97;4983331;28;20031;-67
2021/11/15 06:23:07;;;;;;;47.70;27.23;;;6.30;84.70;;;4.34;99.57;96445.19;4965868;28;20109;-66
2021/11/15 06:25:36;;;;;;;49.53;29.52;;;6.30;84.70;;;4.36;99.45;96438.06;4967987;28;20526;-68
2021/11/15 06:28:03;;;;;;;48.40;27.08;;;6.40;84.70;;;4.37;99.21;96439.69;4969372;28;20027;-67
2021/11/15 06:30:28;;;;;;;55.35;32.58;;;6.40;84.50;;;4.40;99.28;96444.59;4968769;28;20503;-72
2021/11/15 06:32:54;;;;;;;50.13;29.27;;;6.40;84.60;;;4.43;98.49;96439.94;4967118;28;20081;-69
2021/11/15 06:35:20;;;;;;;45.65;28.25;;;6.50;84.50;;;4.45;98.77;96443.22;4981715;28;20526;-68
2021/11/15 06:37:46;;;;;;;44.47;30.13;;;6.50;84.30;;;4.45;99.13;96448.41;4990555;28;20066;-71
2021/11/15 06:40:13;;;;;;;44.83;25.60;;;6.50;84.00;;;4.47;99.10;96445.69;4984308;28;20039;-69
2021/11/15 06:42:39;;;;;;;41.65;25.88;;;6.50;84.00;;;4.45;98.53;96440.59;4969636;28;20039;-70
2021/11/15 06:45:06;;;;;;;45.50;26.80;;;6.40;84.00;;;4.43;98.85;96444.31;4968516;28;20113;-69
2021/11/15 06:47:35;;;;;;;42.72;25.70;;;6.40;84.30;;;4.43;98.97;96445.13;4968269;28;20134;-69
2021/11/15 06:50:01;;;;;;;46.58;28.15;;;6.40;84.40;;;4.45;98.75;96451.03;4967723;28;20077;-69
2021/11/15 06:52:27;;;;;;;48.88;29.00;;;6.50;84.30;;;4.47;98.79;96461.31;4967966;28;20042;-71
2021/11/15 06:54:53;;;;;;;44.95;27.42;;;6.40;84.40;;;4.46;98.96;96459.66;4956916;28;20031;-69
2021/11/15 06:57:19;;;;;;;48.83;27.55;;;6.50;84.40;;;4.43;98.04;96465.16;4985077;28;20061;-70
2021/11/15 06:59:44;;;;;;;46.95;25.65;;;6.40;84.30;;;4.39;98.64;96463.81;4952584;28;20035;-71
2021/11/15 07:02:10;;;;;;;42.42;25.83;;;6.30;84.30;;;4.37;99.09;96474.38;4955290;28;20065;-67
2021/11/15 07:04:36;;;;;;;42.83;24.40;;;6.30;84.30;;;4.36;98.60;96467.50;4984140;28;20115;-67
2021/11/15 07:07:02;;;;;;;41.28;24.25;;;6.30;84.00;;;4.35;98.43;96467.66;4968431;28;20359;-67
2021/11/15 07:09:28;;;;;;;43.40;25.48;;;6.30;83.90;;;4.34;97.66;96468.63;4985399;28;20502;-68
2021/11/15 07:11:55;;;;;;;41.47;25.42;;;6.30;83.90;;;4.36;97.50;96469.31;4967179;28;20030;-68
2021/11/15 07:14:20;;;;;;;41.78;25.52;;;6.30;83.90;;;4.33;98.29;96472.19;4987966;28;20039;-68
2021/11/15 07:16:46;;;;;;;49.40;30.05;;;6.30;84.00;;;4.37;98.03;96465.72;4972065;28;20085;-69
2021/11/15 07:19:12;;;;;;;47.42;29.98;;;6.30;84.50;;;4.39;98.44;96456.00;4984335;28;20055;-72
2021/11/15 07:21:38;;;;;;;50.83;30.25;;;6.40;84.70;;;4.42;98.39;96466.13;4922094;28;20035;-69
2021/11/15 07:24:04;;;;;;;53.78;33.30;;;6.40;84.60;;;4.45;98.32;96473.66;4952696;28;20062;-67
2021/11/15 07:26:30;;;;;;;48.30;30.92;;;6.50;84.60;;;4.46;98.23;96481.31;4968172;28;20057;-67
2021/11/15 07:28:55;;;;;;;45.72;26.95;;;6.50;84.20;;;4.46;99.01;96475.28;4955782;28;20043;-70
2021/11/15 07:31:21;;;;;;;49.00;27.30;;;6.50;83.90;;;4.43;98.70;96486.81;4984129;28;20138;-70
2021/11/15 07:33:47;;;;;;;47.28;28.50;;;6.40;83.90;;;4.41;98.06;96482.72;4988091;28;20462;-70
2021/11/15 07:36:13;;;;;;;47.45;27.75;;;6.50;83.90;;;4.43;97.64;96475.56;4970756;28;20054;-70
2021/11/15 07:38:39;;;;;;;41.03;26.45;;;6.40;83.70;;;4.40;98.20;96481.91;4973029;28;20038;-71
2021/11/15 07:41:05;;;;;;;42.40;28.15;;;6.30;83.80;;;4.41;97.92;96493.13;4968448;28;20514;-67
2021/11/15 07:43:30;;;;;;;44.08;25.00;;;6.40;83.80;;;4.38;98.09;96488.22;4968091;28;20499;-68
2021/11/15 07:45:56;;;;;;;37.33;24.40;;;6.40;83.70;;;4.39;97.60;96485.47;4971528;28;20042;-68
2021/11/15 07:48:22;;;;;;;41.67;25.85;;;6.40;83.50;;;4.41;97.16;96499.16;4969042;28;20031;-68
2021/11/15 07:50:48;;;;;;;45.45;25.67;;;6.40;83.30;;;4.39;98.32;96493.28;4948788;28;20098;-67
2021/11/15 07:53:14;;;;;;;42.28;26.88;;;6.40;83.60;;;4.38;97.60;96485.59;4986145;28;20419;-69
2021/11/15 07:55:42;;;;;;;42.63;25.65;;;6.40;83.70;;;4.39;98.22;96489.84;4969621;28;20031;-67
2021/11/15 07:58:08;;;;;;;43.60;27.35;;;6.40;83.60;;;4.38;98.36;96488.22;4983837;28;20057;-67
2021/11/15 08:00:34;;;;;;;44.30;28.33;;;6.30;83.60;;;4.38;98.19;96488.22;4965520;28;20469;-68
2021/11/15 08:03:00;;;;;;;45.80;30.35;;;6.40;83.80;;;4.39;97.51;96489.84;4970716;28;20030;-65
2021/11/15 08:05:26;;;;;;;43.65;26.90;;;6.40;83.90;;;4.38;98.52;96488.22;4955770;28;20085;-68
2021/11/15 08:07:51;;;;;;;43.33;27.58;;;6.40;83.90;;;4.40;97.68;96494.91;4987081;28;20173;-67
2021/11/15 08:10:19;;;;;;;44.35;28.10;;;6.40;83.80;;;4.42;97.67;96490.38;4970004;28;20567;-70
2021/11/15 08:12:47;;;;;;;41.70;26.23;;;6.40;83.90;;;4.42;97.37;96494.78;4969160;28;20506;-67
2021/11/15 08:15:14;;;;;;;49.03;26.88;;;6.40;83.80;;;4.42;97.63;96499.97;4971308;28;20525;-69
2021/11/15 08:17:42;;;;;;;46.63;28.40;;;6.40;83.80;;;4.40;97.74;96491.50;4970243;28;20524;-68
2021/11/15 08:20:13;;;;;;;46.20;28.70;;;6.40;83.90;;;4.42;97.93;96500.81;4970265;28;20030;-69
2021/11/15 08:22:38;;;;;;;44.85;26.63;;;6.40;83.80;;;4.45;98.14;96504.91;4971805;28;20579;-71
2021/11/15 08:26:00;;;;;;;48.67;27.42;;;6.40;83.80;;;4.42;98.44;96507.78;4982346;28;20070;-70
2021/11/15 08:28:27;;;;;;;48.28;28.38;;;6.40;83.90;;;4.41;98.24;96504.38;4954198;28;20038;-69
2021/11/15 08:30:54;;;;;;;47.30;27.27;;;6.40;83.90;;;4.42;98.68;96511.22;4989787;28;20605;-68
2021/11/15 08:33:19;;;;;;;47.90;28.15;;;6.40;83.90;;;4.40;97.81;96505.34;4966266;28;20034;-67
2021/11/15 08:35:48;;;;;;;48.58;29.30;;;6.40;83.80;;;4.40;98.37;96507.13;4971560;28;20058;-68
2021/11/15 08:38:18;;;;;;;47.40;26.10;;;6.40;83.90;;;4.43;98.23;96512.03;4968443;28;20054;-68
2021/11/15 08:40:50;;;;;;;43.03;26.70;;;6.40;83.80;;;4.44;98.36;96509.28;4970757;28;20593;-70
2021/11/15 08:43:20;;;;;;;41.15;25.35;;;6.40;83.70;;;4.44;98.39;96511.06;4973105;28;20486;-71
2021/11/15 08:45:47;;;;;;;44.05;26.40;;;6.40;83.60;;;4.45;98.11;96507.50;4983365;28;20230;-69
2021/11/15 08:48:12;;;;;;;41.90;23.77;;;6.50;83.60;;;4.46;97.44;96509.16;4935742;28;20445;-71
2021/11/15 08:50:38;;;;;;;41.08;25.63;;;6.50;83.30;;;4.47;97.50;96505.59;4968865;28;20034;-70
2021/11/15 08:53:04;;;;;;;43.47;24.05;;;6.50;83.10;;;4.48;97.88;96515.84;5000650;28;20027;-70
2021/11/15 08:55:30;;;;;;;38.88;24.08;;;6.50;83.10;;;4.48;97.83;96509.81;4978118;28;20722;-70
2021/11/15 08:57:57;;;;;;;40.15;23.38;;;6.50;83.10;;;4.47;97.50;96505.59;4980484;28;20035;-71
2021/11/15 09:00:23;;;;;;;38.88;24.00;;;6.50;83.10;;;4.48;97.14;96509.81;4965123;28;20095;-68
2021/11/15 09:02:49;;;;;;;41.33;22.98;;;6.50;82.90;;;4.49;96.65;96503.66;4966325;28;20078;-68
2021/11/15 09:05:14;;;;;;;42.53;25.20;;;6.60;82.70;;;4.49;97.14;96503.66;4966558;28;20046;-68
2021/11/15 09:07:41;;;;;;;36.40;22.45;;;6.60;82.60;;;4.50;97.57;96507.91;4951380;28;20035;-67
2021/11/15 09:10:11;;;;;;;41.60;24.30;;;6.60;82.50;;;4.52;96.49;96503.38;4952503;28;20414;-68
2021/11/15 09:12:37;;;;;;;38.38;22.52;;;6.60;82.70;;;4.53;96.46;96508.47;4981444;28;20039;-69
2021/11/15 09:15:04;;;;;;;44.95;25.60;;;6.60;82.50;;;4.54;96.32;96506.69;4972881;28;20057;-67
2021/11/15 09:17:30;;;;;;;39.40;22.63;;;6.60;82.70;;;4.53;96.26;96507.66;4981143;28;20121;-67
2021/11/15 09:19:56;;;;;;;42.38;23.73;;;6.60;82.40;;;4.56;97.07;96507.34;4972070;28;20050;-70
2021/11/15 09:22:22;;;;;;;40.47;24.02;;;6.60;82.50;;;4.58;96.93;96505.44;4950117;28;20039;-71
2021/11/15 09:24:48;;;;;;;43.05;25.77;;;6.60;82.40;;;4.61;96.99;96513.78;4942816;28;20059;-72
2021/11/15 09:27:14;;;;;;;43.90;25.08;;;6.60;82.50;;;4.59;96.35;96496.66;4959697;28;20102;-67
2021/11/15 09:29:42;;;;;;;42.40;24.00;;;6.70;82.40;;;4.58;96.82;96500.22;4967531;28;20058;-68
2021/11/15 09:32:08;;;;;;;41.85;24.75;;;6.70;82.40;;;4.60;96.63;96508.72;4968350;28;20557;-71
2021/11/15 09:34:35;;;;;;;45.42;25.48;;;6.60;82.40;;;4.59;96.38;96502.69;4985242;28;20046;-68
2021/11/15 09:37:01;;;;;;;44.92;24.48;;;6.60;82.70;;;4.65;96.71;96518.69;4985654;28;20031;-68
2021/11/15 09:39:26;;;;;;;42.83;24.15;;;6.70;82.70;;;4.62;96.68;96512.00;4962528;28;20039;-69
2021/11/15 09:41:52;;;;;;;40.55;25.02;;;6.60;82.40;;;4.60;97.02;96500.91;4923010;28;20039;-69
2021/11/15 09:44:18;;;;;;;43.63;26.02;;;6.60;82.60;;;4.59;96.12;96501.88;4970080;28;20047;-68
2021/11/15 09:46:46;;;;;;;43.60;27.38;;;6.60;82.80;;;4.58;97.41;96515.84;4985685;28;20046;-69
2021/11/15 09:49:12;;;;;;;46.70;26.63;;;6.60;83.00;;;4.56;96.28;96512.56;4968048;28;20046;-70
2021/11/15 09:51:42;;;;;;;47.70;26.63;;;6.60;82.90;;;4.55;97.36;96509.16;4984767;28;20035;-69
2021/11/15 09:54:08;;;;;;;42.70;25.07;;;6.60;82.90;;;4.55;96.53;96505.72;4981056;28;20031;-71
2021/11/15 09:56:34;;;;;;;47.60;26.75;;;6.60;82.70;;;4.56;96.32;96513.38;4919177;28;20499;-71
2021/11/15 09:59:00;;;;;;;52.97;27.08;;;6.60;82.60;;;4.49;96.99;96503.66;4951069;28;20070;-71
2021/11/15 10:01:27;;;;;;;48.88;27.67;;;6.50;82.60;;;4.49;96.63;96496.66;4948858;28;20090;-68
2021/11/15 10:03:52;;;;;;;48.65;26.77;;;6.60;82.90;;;4.50;96.79;96502.69;4952560;28;20065;-70
2021/11/15 10:06:21;;;;;;;51.35;28.00;;;6.60;83.10;;;4.51;96.88;96510.38;4968624;28;20144;-70
2021/11/15 10:08:48;;;;;;;50.75;28.73;;;6.60;83.10;;;4.52;96.96;96500.75;4948911;28;20043;-68
2021/11/15 10:11:14;;;;;;;48.15;29.70;;;6.60;83.20;;;4.53;97.36;96502.44;4984594;28;20039;-68
2021/11/15 10:13:40;;;;;;;47.20;27.52;;;6.60;83.20;;;4.54;96.74;96502.28;4966616;28;20051;-70
2021/11/15 10:16:16;;;;;;;47.00;27.58;;;6.60;83.00;;;4.56;96.85;96502.16;4965669;28;20067;-68
2021/11/15 10:18:45;;;;;;;50.40;27.25;;;6.60;83.10;;;4.56;97.21;96492.56;4985478;28;20043;-70